createdAt,value
2019-02-10T00:01:51.328Z,97579.34
2019-02-10T00:04:32.932Z,97586.54
2019-02-10T00:07:07.380Z,97584.81
2019-02-10T00:09:47.399Z,97574.49
2019-02-10T00:12:20.547Z,97566.93
2019-02-10T00:15:01.157Z,97567.61
2019-02-10T00:17:36.471Z,97570.72
2019-02-10T00:20:14.813Z,97567.16
2019-02-10T00:22:52.009Z,97564.33
2019-02-10T00:25:35.692Z,97568.06
2019-02-10T00:28:11.312Z,97559.97
2019-02-10T00:30:50.697Z,97564.15
2019-02-10T00:33:24.097Z,97562.29
2019-02-10T00:36:01.360Z,97554.14
2019-02-10T00:38:38.523Z,97553.78
2019-02-10T00:41:15.404Z,97551.97
2019-02-10T00:43:47.795Z,97551.41
2019-02-10T00:46:26.254Z,97550.48
2019-02-10T00:49:01.496Z,97548.95
2019-02-10T00:51:38.144Z,97539.49
2019-02-10T00:54:10.626Z,97541.48
2019-02-10T00:56:51.619Z,97533.06
2019-02-10T00:59:26.295Z,97531.94
2019-02-10T01:02:05.246Z,97521.28
2019-02-10T01:04:38.366Z,97518.92
2019-02-10T01:07:15.467Z,97520.83
2019-02-10T01:09:49.106Z,97516.19
2019-02-10T01:12:24.238Z,97515.55
2019-02-10T01:14:55.331Z,97522.70
2019-02-10T01:17:29.297Z,97516.29
2019-02-10T01:20:01.951Z,97514.86
2019-02-10T01:22:40.234Z,97513.45
2019-02-10T01:25:12.396Z,97506.94
2019-02-10T01:27:47.900Z,97501.34
2019-02-10T01:30:19.938Z,97492.61
2019-02-10T01:32:55.000Z,97489.98
2019-02-10T01:35:28.126Z,97494.39
2019-02-10T01:38:03.724Z,97495.70
2019-02-10T01:40:38.184Z,97492.85
2019-02-10T01:43:16.162Z,97483.48
2019-02-10T01:45:50.032Z,97477.83
2019-02-10T01:48:24.453Z,97473.30
2019-02-10T01:50:57.093Z,97473.73
2019-02-10T01:53:34.190Z,97469.79
2019-02-10T01:56:06.019Z,97462.69
2019-02-10T01:58:41.283Z,97447.28
2019-02-10T02:01:14.072Z,97459.11
2019-02-10T02:03:49.493Z,97462.47
2019-02-10T02:06:22.453Z,97456.37
2019-02-10T02:08:55.888Z,97453.05
2019-02-10T02:11:30.534Z,97443.00
2019-02-10T02:14:05.563Z,97435.18
2019-02-10T02:16:39.063Z,97422.91
2019-02-10T02:19:15.320Z,97412.63
2019-02-10T02:21:48.747Z,97404.55
2019-02-10T02:24:21.239Z,97415.27
2019-02-10T02:27:01.892Z,97411.86
2019-02-10T02:29:33.750Z,97402.39
2019-02-10T02:32:06.944Z,97396.99
2019-02-10T02:34:39.186Z,97393.53
2019-02-10T02:37:12.180Z,97381.98
2019-02-10T02:39:46.475Z,97377.77
2019-02-10T02:42:18.775Z,97365.03
2019-02-10T02:44:51.439Z,97355.67
2019-02-10T02:47:24.692Z,97343.22
2019-02-10T02:49:58.466Z,97341.34
2019-02-10T02:52:32.645Z,97335.13
2019-02-10T02:55:06.432Z,97330.81
2019-02-10T02:57:39.562Z,97333.17
2019-02-10T03:00:13.514Z,97341.22
2019-02-10T03:02:43.843Z,97354.05
2019-02-10T03:05:13.592Z,97342.41
2019-02-10T03:07:44.331Z,97335.99
2019-02-10T03:10:15.025Z,97333.96
2019-02-10T03:12:46.914Z,97336.32
2019-02-10T03:15:20.720Z,97324.05
2019-02-10T03:17:53.285Z,97329.32
2019-02-10T03:20:27.040Z,97322.27
2019-02-10T03:22:59.553Z,97318.37
2019-02-10T03:25:33.028Z,97334.41
2019-02-10T03:28:08.029Z,97324.23
2019-02-10T03:30:41.476Z,97322.27
2019-02-10T03:33:13.238Z,97319.59
2019-02-10T03:35:47.710Z,97321.22
2019-02-10T03:38:23.017Z,97318.91
2019-02-10T03:40:57.917Z,97307.87
2019-02-10T03:43:31.176Z,97300.58
2019-02-10T03:46:03.930Z,97294.14
2019-02-10T03:48:37.140Z,97280.82
2019-02-10T03:51:10.925Z,97276.16
2019-02-10T03:53:46.136Z,97284.22
2019-02-10T03:56:19.251Z,97274.02
2019-02-10T03:58:51.849Z,97267.02
2019-02-10T04:01:25.503Z,97271.46
2019-02-10T04:03:56.672Z,97277.78
2019-02-10T04:06:28.976Z,97276.25
2019-02-10T04:09:03.112Z,97275.57
2019-02-10T04:11:41.745Z,97273.45
2019-02-10T04:14:15.441Z,97256.23
2019-02-10T04:16:47.197Z,97254.27
2019-02-10T04:19:19.122Z,97262.13
2019-02-10T04:21:55.062Z,97261.14
2019-02-10T04:24:27.276Z,97249.19
2019-02-10T04:27:00.755Z,97239.10
2019-02-10T04:29:33.803Z,97235.44
2019-02-10T04:32:06.407Z,97225.27
2019-02-10T04:34:39.724Z,97227.63
2019-02-10T04:37:11.575Z,97223.54
2019-02-10T04:39:49.004Z,97227.20
2019-02-10T04:42:22.947Z,97239.97
2019-02-10T04:44:54.117Z,97239.75
2019-02-10T04:47:26.728Z,97237.25
2019-02-10T04:50:00.383Z,97229.48
2019-02-10T04:52:32.570Z,97235.06
2019-02-10T04:55:06.016Z,97224.03
2019-02-10T04:57:39.652Z,97209.73
2019-02-10T05:00:13.934Z,97206.84
2019-02-10T05:02:46.565Z,97201.74
2019-02-10T05:05:20.375Z,97193.84
2019-02-10T05:07:54.746Z,97190.75
2019-02-10T05:10:27.536Z,97193.58
2019-02-10T05:13:02.211Z,97183.45
2019-02-10T05:15:34.476Z,97158.35
2019-02-10T05:18:06.940Z,97166.61
2019-02-10T05:20:39.112Z,97157.45
2019-02-10T05:23:11.433Z,97155.89
2019-02-10T05:25:43.044Z,97140.88
2019-02-10T05:28:14.324Z,97132.38
2019-02-10T05:30:47.399Z,97136.90
2019-02-10T05:33:21.346Z,97107.36
2019-02-10T05:35:52.623Z,97102.90
2019-02-10T05:38:28.492Z,97109.25
2019-02-10T05:41:04.853Z,97128.87
2019-02-10T05:43:40.452Z,97110.73
2019-02-10T05:46:11.835Z,97124.38
2019-02-10T05:48:46.944Z,97119.45
2019-02-10T05:51:18.412Z,97107.73
2019-02-10T05:53:53.220Z,97103.39
2019-02-10T05:56:24.681Z,97099.45
2019-02-10T05:58:58.819Z,97090.03
2019-02-10T06:02:03.282Z,97088.34
2019-02-10T06:04:44.197Z,97072.38
2019-02-10T06:07:19.106Z,97070.41
2019-02-10T06:09:54.426Z,97060.78
2019-02-10T06:12:29.138Z,97054.09
2019-02-10T06:15:08.902Z,97060.41
2019-02-10T06:17:41.615Z,97039.05
2019-02-10T06:20:17.262Z,97024.94
2019-02-10T06:22:50.946Z,97028.61
2019-02-10T06:25:24.829Z,97033.60
2019-02-10T06:28:02.868Z,97044.66
2019-02-10T06:30:40.209Z,97024.87
2019-02-10T06:33:14.658Z,97018.16
2019-02-10T06:35:49.961Z,97021.15
2019-02-10T06:38:23.957Z,97014.40
2019-02-10T06:40:57.401Z,97016.73
2019-02-10T06:43:31.587Z,97024.05
2019-02-10T06:46:05.120Z,97045.81
2019-02-10T06:48:37.729Z,97052.52
2019-02-10T06:51:12.026Z,97061.83
2019-02-10T06:53:45.596Z,97067.81
2019-02-10T06:56:21.350Z,97062.04
2019-02-10T06:58:53.416Z,97060.84
2019-02-10T07:01:27.020Z,97048.45
2019-02-10T07:04:04.670Z,97055.27
2019-02-10T07:06:45.060Z,97044.50
2019-02-10T07:09:18.163Z,96989.55
2019-02-10T07:11:51.109Z,96992.33
2019-02-10T07:14:25.709Z,96985.52
2019-02-10T07:20:14.432Z,96954.45
2019-02-10T07:22:53.296Z,96958.44
2019-02-10T07:25:49.861Z,96953.08
2019-02-10T07:28:31.003Z,96946.38
2019-02-10T07:31:11.046Z,96936.68
2019-02-10T07:34:11.376Z,96928.34
2019-02-10T07:36:59.849Z,96922.73
2019-02-10T07:40:03.575Z,96915.77
2019-02-10T07:43:01.383Z,96900.68
2019-02-10T07:45:52.267Z,96895.72
2019-02-10T07:48:42.160Z,96894.11
2019-02-10T07:51:37.849Z,96902.12
2019-02-10T07:54:12.308Z,96902.34
2019-02-10T07:59:55.247Z,96914.23
2019-02-10T08:05:31.029Z,96910.02
2019-02-10T08:08:18.249Z,96886.01
2019-02-10T08:11:31.061Z,96884.99
2019-02-10T08:17:35.384Z,96887.91
2019-02-10T08:20:23.336Z,96894.13
2019-02-10T08:26:16.800Z,96868.72
2019-02-10T08:29:08.204Z,96875.25
2019-02-10T08:32:02.824Z,96886.36
2019-02-10T08:37:25.993Z,96892.58
2019-02-10T08:40:39.111Z,96891.05
2019-02-10T08:46:39.352Z,96889.53
2019-02-10T08:52:28.515Z,96866.59
2019-02-10T08:57:40.202Z,96849.45
2019-02-10T09:02:52.331Z,96838.66
2019-02-10T09:08:01.574Z,96818.14
2019-02-10T09:13:14.346Z,96805.38
2019-02-10T09:18:23.723Z,96808.16
2019-02-10T09:23:31.019Z,96840.96
2019-02-10T09:32:54.817Z,96811.37
2019-02-10T09:38:00.489Z,96792.23
2019-02-10T09:53:23.597Z,96799.05
2019-02-10T09:56:04.038Z,96815.00
2019-02-10T09:58:40.591Z,96787.88
2019-02-10T10:01:14.879Z,96779.52
2019-02-10T10:03:48.265Z,96786.47
2019-02-10T10:06:28.014Z,96795.16
2019-02-10T10:09:05.173Z,96782.88
2019-02-10T10:11:43.244Z,96764.71
2019-02-10T10:14:14.447Z,96770.39
2019-02-10T10:16:50.514Z,96760.48
2019-02-10T10:19:23.612Z,96753.63
2019-02-10T10:22:05.719Z,96749.98
2019-02-10T10:24:50.166Z,96728.62
2019-02-10T10:29:59.702Z,96729.97
2019-02-10T10:32:35.017Z,96752.66
2019-02-10T10:35:09.651Z,96702.79
2019-02-10T10:37:41.638Z,96673.04
2019-02-10T10:40:19.232Z,96644.42
2019-02-10T10:44:53.362Z,96641.66
2019-02-10T10:47:27.084Z,96622.06
2019-02-10T10:49:59.394Z,96618.00
2019-02-10T10:52:34.666Z,96606.42
2019-02-10T10:55:04.748Z,96590.20
2019-02-10T10:57:37.088Z,96590.02
2019-02-10T11:00:11.929Z,96588.01
2019-02-10T11:02:50.576Z,96564.71
2019-02-10T11:05:23.343Z,96551.95
2019-02-10T11:07:59.917Z,96545.63
2019-02-10T11:10:31.357Z,96548.52
2019-02-10T11:13:05.771Z,96528.08
2019-02-10T11:15:39.274Z,96527.26
2019-02-10T11:18:15.274Z,96513.23
2019-02-10T11:20:46.696Z,96484.42
2019-02-10T11:23:22.192Z,96475.84
2019-02-10T11:25:57.668Z,96469.76
2019-02-10T11:28:34.391Z,96448.80
2019-02-10T11:31:05.778Z,96440.87
2019-02-10T11:36:09.992Z,96434.74
2019-02-10T11:38:48.766Z,96414.17
2019-02-10T11:41:20.533Z,96421.50
2019-02-10T11:43:54.965Z,96410.13
2019-02-10T11:46:30.098Z,96402.25
2019-02-10T11:51:34.569Z,96402.30
2019-02-10T11:54:11.865Z,96384.50
2019-02-10T11:56:43.273Z,96383.36
2019-02-10T12:01:49.257Z,96386.48
2019-02-10T12:06:56.326Z,96374.42
2019-02-10T12:09:33.807Z,96373.78
2019-02-10T12:12:03.816Z,96349.02
2019-02-10T12:17:08.206Z,96344.67
2019-02-10T12:22:14.944Z,96339.84
2019-02-10T12:24:52.364Z,96331.48
2019-02-10T12:27:28.516Z,96313.40
2019-02-10T12:30:06.845Z,96319.58
2019-02-10T12:32:40.296Z,96319.36
2019-02-10T12:35:21.688Z,96306.00
2019-02-10T12:37:58.291Z,96299.08
2019-02-10T12:40:29.426Z,96289.84
2019-02-10T12:45:36.858Z,96269.20
2019-02-10T12:48:14.264Z,96270.09
2019-02-10T12:50:45.998Z,96278.64
2019-02-10T12:53:21.646Z,96275.23
2019-02-10T12:55:53.616Z,96258.97
2019-02-10T13:01:50.746Z,96261.80
2019-02-10T13:06:56.613Z,96252.55
2019-02-10T13:09:33.862Z,96253.55
2019-02-10T13:12:04.640Z,96252.05
2019-02-10T13:14:39.924Z,96246.11
2019-02-10T13:17:10.226Z,96221.63
2019-02-10T13:20:04.882Z,96211.80
2019-02-10T13:22:36.659Z,96215.45
2019-02-10T13:27:50.512Z,96207.64
2019-02-10T13:30:23.925Z,96192.80
2019-02-10T13:32:55.645Z,96199.20
2019-02-10T13:35:30.152Z,96167.09
2019-02-10T13:38:01.617Z,96175.66
2019-02-10T13:40:37.813Z,96162.56
2019-02-10T13:43:09.983Z,96178.93
2019-02-10T13:45:45.058Z,96174.92
2019-02-10T13:51:18.174Z,96145.45
2019-02-10T13:56:48.499Z,96152.81
2019-02-10T14:02:17.964Z,96112.54
2019-02-10T14:04:52.256Z,96094.88
2019-02-10T14:07:26.670Z,96094.34
2019-02-10T14:09:57.258Z,96127.78
2019-02-10T14:12:32.520Z,96133.92
2019-02-10T14:18:03.491Z,96119.15
2019-02-10T14:20:35.115Z,96141.05
2019-02-10T14:23:11.925Z,96149.16
2019-02-10T14:25:42.827Z,96122.08
2019-02-10T14:28:21.872Z,96106.27
2019-02-10T14:30:51.908Z,96123.22
2019-02-10T14:33:25.047Z,96124.65
2019-02-10T14:35:54.896Z,96112.30
2019-02-10T14:38:36.281Z,96117.93
2019-02-10T14:41:01.554Z,96117.80
2019-02-10T14:43:35.611Z,96115.19
2019-02-10T14:46:07.020Z,96115.50
2019-02-10T14:48:40.643Z,96102.36
2019-02-10T14:51:13.348Z,96119.91
2019-02-10T14:53:48.065Z,96097.63
2019-02-10T14:56:17.724Z,96098.56
2019-02-10T14:58:50.470Z,96092.27
2019-02-10T15:01:20.992Z,96090.94
2019-02-10T15:03:57.170Z,96093.45
2019-02-10T15:06:30.293Z,96085.73
2019-02-10T15:09:19.438Z,96061.41
2019-02-10T15:11:49.889Z,96032.46
2019-02-10T15:14:23.645Z,96041.05
2019-02-10T15:17:00.783Z,96039.52
2019-02-10T15:19:35.187Z,96044.80
2019-02-10T15:22:07.819Z,96043.36
2019-02-10T15:24:43.200Z,96042.36
2019-02-10T15:27:19.002Z,96041.19
2019-02-10T15:29:54.556Z,96038.19
2019-02-10T15:32:25.925Z,96051.22
2019-02-10T15:35:03.421Z,96053.59
2019-02-10T15:37:33.616Z,96060.73
2019-02-10T15:40:30.591Z,96038.31
2019-02-10T15:43:06.302Z,96045.97
2019-02-10T15:45:36.890Z,96047.67
2019-02-10T15:48:11.459Z,96050.98
2019-02-10T15:50:42.276Z,96041.19
2019-02-10T15:53:16.789Z,96043.59
2019-02-10T15:55:49.105Z,96040.85
2019-02-10T15:58:27.848Z,96052.58
2019-02-10T16:00:57.491Z,96053.65
2019-02-10T16:03:31.724Z,96050.91
2019-02-10T16:06:02.673Z,96055.09
2019-02-10T16:08:36.877Z,96065.04
2019-02-10T16:11:08.971Z,96064.11
2019-02-10T16:13:43.838Z,96061.17
2019-02-10T16:16:16.971Z,96057.06
2019-02-10T16:18:50.801Z,96072.62
2019-02-10T16:21:24.717Z,96063.70
2019-02-10T16:23:59.212Z,96046.67
2019-02-10T16:26:29.845Z,96055.98
2019-02-10T16:29:07.870Z,96058.93
2019-02-10T16:31:38.444Z,96063.91
2019-02-10T16:34:14.695Z,96070.30
2019-02-10T16:36:45.971Z,96061.30
2019-02-10T16:39:21.154Z,96051.56
2019-02-10T16:41:55.923Z,96036.59
2019-02-10T16:44:31.247Z,96031.77
2019-02-10T16:47:02.864Z,96032.13
2019-02-10T16:49:37.739Z,96041.16
2019-02-10T16:52:10.640Z,96020.64
2019-02-10T16:54:46.859Z,96015.19
2019-02-10T16:57:17.425Z,95999.91
2019-02-10T17:02:28.885Z,95972.29
2019-02-10T17:05:06.449Z,95958.54
2019-02-10T17:07:37.803Z,95941.78
2019-02-10T17:10:17.149Z,95941.91
2019-02-10T17:15:45.259Z,95936.98
2019-02-10T17:18:19.247Z,95970.07
2019-02-10T17:20:57.363Z,96004.23
2019-02-10T17:23:28.749Z,96024.05
2019-02-10T17:28:38.404Z,95978.91
2019-02-10T17:31:14.432Z,95976.22
2019-02-10T17:33:44.430Z,96007.42
2019-02-10T17:36:19.856Z,96016.55
2019-02-10T17:38:48.417Z,96026.31
2019-02-10T17:43:59.860Z,96035.64
2019-02-10T17:46:34.214Z,96039.61
2019-02-10T17:49:14.356Z,96043.62
2019-02-10T17:51:47.443Z,96036.05
2019-02-10T17:54:21.905Z,96039.91
2019-02-10T17:56:56.735Z,96058.33
2019-02-10T17:59:25.002Z,96063.41
2019-02-10T18:02:00.458Z,96076.26
2019-02-10T18:04:37.387Z,96101.27
2019-02-10T18:07:08.116Z,96107.75
2019-02-10T18:09:37.922Z,96110.36
2019-02-10T18:12:09.580Z,96105.78
2019-02-10T18:14:55.719Z,96106.63
2019-02-10T18:20:17.760Z,96107.73
2019-02-10T18:25:29.062Z,96104.83
2019-02-10T18:30:45.171Z,96087.45
2019-02-10T18:36:13.167Z,96089.47
2019-02-10T18:41:39.326Z,96078.08
2019-02-10T18:50:01.464Z,96096.86
2019-02-10T18:55:12.144Z,96113.23
2019-02-10T19:00:26.326Z,96121.12
2019-02-10T19:05:36.203Z,96149.16
2019-02-10T19:08:16.307Z,96173.52
2019-02-10T19:10:50.071Z,96182.42
2019-02-10T19:16:25.327Z,96198.45
2019-02-10T19:21:44.877Z,96206.06
2019-02-10T19:32:42.320Z,96240.55
2019-02-10T19:35:21.834Z,96237.72
2019-02-10T19:37:53.921Z,96233.98
2019-02-10T19:40:28.194Z,96240.61
2019-02-10T19:43:01.618Z,96240.70
2019-02-10T19:45:49.758Z,96266.70
2019-02-10T19:48:32.610Z,96275.69
2019-02-10T19:51:16.480Z,96273.85
2019-02-10T19:53:56.572Z,96278.34
2019-02-10T19:56:29.546Z,96276.41
2019-02-10T19:59:01.251Z,96270.38
2019-02-10T20:01:38.053Z,96244.17
2019-02-10T20:04:10.336Z,96238.05
2019-02-10T20:06:41.602Z,96241.44
2019-02-10T20:09:24.645Z,96243.97
2019-02-10T20:12:03.886Z,96245.69
2019-02-10T20:14:30.501Z,96282.56
2019-02-10T20:17:11.086Z,96296.37
2019-02-10T20:19:48.425Z,96284.15
2019-02-10T20:22:30.416Z,96291.55
2019-02-10T20:25:09.290Z,96276.98
2019-02-10T20:27:53.358Z,96295.87
2019-02-10T20:30:26.267Z,96302.98
2019-02-10T20:33:04.193Z,96322.78
2019-02-10T20:35:43.082Z,96319.27
2019-02-10T20:38:15.466Z,96331.27
2019-02-10T20:40:53.802Z,96326.68
2019-02-10T20:43:27.071Z,96331.00
2019-02-10T20:46:14.827Z,96327.13
2019-02-10T20:48:50.715Z,96319.75
2019-02-10T20:51:24.245Z,96332.16
2019-02-10T20:54:06.082Z,96346.50
2019-02-10T20:56:42.129Z,96340.36
2019-02-10T20:59:16.810Z,96342.20
2019-02-10T21:02:04.908Z,96335.63
2019-02-10T21:04:49.099Z,96326.41
2019-02-10T21:07:20.580Z,96332.44
2019-02-10T21:09:53.517Z,96323.58
2019-02-10T21:12:41.680Z,96330.36
2019-02-10T21:15:20.225Z,96329.19
2019-02-10T21:17:53.743Z,96333.31
2019-02-10T21:20:38.109Z,96348.15
2019-02-10T21:23:12.352Z,96356.36
2019-02-10T21:25:52.561Z,96357.98
2019-02-10T21:28:19.155Z,96347.70
2019-02-10T21:30:59.149Z,96347.51
2019-02-10T21:33:46.411Z,96352.30
2019-02-10T21:36:21.996Z,96355.27
2019-02-10T21:39:09.840Z,96370.45
2019-02-10T21:41:44.562Z,96395.88
2019-02-10T21:44:22.651Z,96382.63
2019-02-10T21:47:04.368Z,96373.29
2019-02-10T21:49:35.915Z,96360.63
2019-02-10T21:52:05.762Z,96359.38
2019-02-10T21:54:39.382Z,96367.16
2019-02-10T21:57:12.714Z,96362.25
2019-02-10T21:59:43.577Z,96361.25
2019-02-10T22:02:17.359Z,96344.38
2019-02-10T22:04:46.399Z,96362.16
2019-02-10T22:07:17.804Z,96352.34
2019-02-10T22:09:47.409Z,96359.44
2019-02-10T22:12:19.248Z,96353.97
2019-02-10T22:14:49.705Z,96348.95
2019-02-10T22:17:22.545Z,96341.20
2019-02-10T22:19:53.771Z,96349.14
2019-02-10T22:22:24.363Z,96351.52
2019-02-10T22:24:57.141Z,96342.75
2019-02-10T22:27:28.742Z,96338.20
2019-02-10T22:29:58.528Z,96340.67
2019-02-10T22:32:29.375Z,96351.97
2019-02-10T22:35:00.755Z,96346.30
2019-02-10T22:37:30.587Z,96351.33
2019-02-10T22:40:02.304Z,96350.39
2019-02-10T22:42:32.100Z,96353.26
2019-02-10T22:45:03.995Z,96354.62
2019-02-10T22:47:39.179Z,96343.73
2019-02-10T22:50:18.821Z,96330.72
2019-02-10T22:52:49.523Z,96339.58
2019-02-10T22:55:22.209Z,96324.52
2019-02-10T22:57:56.669Z,96337.72
2019-02-10T23:00:53.432Z,96348.78
2019-02-10T23:03:23.975Z,96352.11
2019-02-10T23:05:58.349Z,96357.98
2019-02-10T23:08:30.175Z,96354.87
2019-02-10T23:11:03.020Z,96369.22
2019-02-10T23:13:32.900Z,96366.06
2019-02-10T23:16:05.051Z,96360.59
2019-02-10T23:18:52.624Z,96372.90
2019-02-10T23:21:25.331Z,96374.59
2019-02-10T23:23:55.646Z,96378.02
2019-02-10T23:26:31.822Z,96365.16
2019-02-10T23:29:05.569Z,96350.79
2019-02-10T23:31:40.075Z,96355.05
2019-02-10T23:34:13.053Z,96354.73
2019-02-10T23:36:45.304Z,96353.84
2019-02-10T23:39:17.708Z,96371.61
2019-02-10T23:41:49.361Z,96376.31
2019-02-10T23:44:23.162Z,96368.88
2019-02-10T23:47:02.221Z,96357.28
2019-02-10T23:49:37.614Z,96365.73
2019-02-10T23:52:08.923Z,96390.44
2019-02-10T23:54:42.926Z,96357.95
2019-02-10T23:57:13.675Z,96359.00
2019-02-10T23:59:44.306Z,96366.53
